Time;durP1;ratioP1;P1;durP2;ratioP2;P2;SDS_P1;SDS_P2;PMS_P1;PMS_P2;Temp;Humidity;BMP_temperature;BMP_pressure;BME280_temperature;BME280_humidity;BME280_pressure;Samples;Min_cycle;Max_cycle;Signal;HPM_P1;HPM_P2
2021/10/31 00:01:25;;;;;;;240.82;123.68;;;3.90;99.90;;;;;;4943177;29;20059;-96
2021/10/31 00:03:52;;;;;;;223.70;118.28;;;3.80;99.90;;;;;;4942402;29;20118;-96
2021/10/31 00:06:18;;;;;;;206.88;109.50;;;3.90;99.90;;;;;;4942804;29;20078;-96
2021/10/31 00:08:44;;;;;;;200.07;105.72;;;3.90;99.90;;;;;;4942633;29;20126;-96
2021/10/31 00:11:09;;;;;;;175.13;93.68;;;3.90;99.90;;;;;;4943107;29;20027;-96
2021/10/31 00:13:35;;;;;;;190.32;97.35;;;3.90;99.90;;;;;;4943719;29;20039;-96
2021/10/31 00:16:02;;;;;;;165.95;88.03;;;3.90;99.90;;;;;;4944508;29;20055;-96
2021/10/31 00:18:28;;;;;;;165.63;89.10;;;3.90;99.90;;;;;;4945759;29;20105;-96
2021/10/31 00:20:56;;;;;;;167.60;88.13;;;3.90;99.90;;;;;;4946535;29;20028;-96
2021/10/31 00:23:23;;;;;;;154.75;84.50;;;3.90;99.90;;;;;;4945681;29;20118;-96
2021/10/31 00:25:48;;;;;;;157.93;83.88;;;4.00;99.90;;;;;;4945309;29;20467;-96
2021/10/31 00:28:14;;;;;;;151.45;83.78;;;3.90;99.90;;;;;;4942839;29;20031;-96
2021/10/31 00:30:40;;;;;;;166.60;87.28;;;3.90;99.90;;;;;;4941878;29;20401;-96
2021/10/31 00:33:06;;;;;;;170.32;89.88;;;3.80;99.90;;;;;;4942123;29;20479;-96
2021/10/31 00:35:32;;;;;;;173.57;92.88;;;3.80;99.90;;;;;;4942213;29;20029;-96
2021/10/31 00:37:58;;;;;;;167.45;88.40;;;3.80;99.90;;;;;;4942503;29;20046;-96
2021/10/31 00:40:23;;;;;;;163.00;88.80;;;3.80;99.90;;;;;;4941471;29;20047;-96
2021/10/31 00:42:49;;;;;;;157.55;83.75;;;3.70;99.90;;;;;;4941435;29;20019;-96
2021/10/31 00:45:15;;;;;;;147.40;78.13;;;3.70;99.90;;;;;;4943182;29;20038;-96
2021/10/31 00:47:41;;;;;;;163.20;85.18;;;3.70;99.90;;;;;;4945255;29;20031;-96
2021/10/31 00:50:07;;;;;;;178.65;89.93;;;3.80;99.90;;;;;;4945153;29;20039;-96
2021/10/31 00:52:33;;;;;;;182.45;93.18;;;3.80;99.90;;;;;;4948077;29;20213;-96
2021/10/31 00:55:05;;;;;;;228.35;116.47;;;3.80;99.90;;;;;;4946089;29;20114;-96
2021/10/31 00:57:31;;;;;;;198.35;103.53;;;3.70;99.90;;;;;;4946390;29;20090;-96
2021/10/31 01:00:01;;;;;;;217.85;111.72;;;3.60;99.90;;;;;;4951107;29;20020;-96
2021/10/31 01:02:28;;;;;;;206.40;107.65;;;3.50;99.90;;;;;;4937334;29;20036;-96
2021/10/31 01:04:57;;;;;;;188.35;102.20;;;3.50;99.90;;;;;;4947058;29;20027;-96
2021/10/31 01:08:03;;;;;;;145.70;81.82;;;3.40;99.90;;;;;;4941611;29;20526;-96
2021/10/31 01:10:56;;;;;;;136.02;73.40;;;3.40;99.90;;;;;;4865258;29;20029;-96
2021/10/31 01:13:44;;;;;;;137.57;74.90;;;3.50;99.90;;;;;;4865155;29;20112;-96
2021/10/31 01:16:25;;;;;;;128.68;68.65;;;3.60;99.90;;;;;;4926802;29;20478;-95
2021/10/31 01:18:51;;;;;;;;;;;3.60;99.90;;;;;;4942554;29;20034;-96
2021/10/31 01:21:54;;;;;;;114.55;60.28;;;3.60;99.90;;;;;;4945206;29;19906;-96
2021/10/31 01:24:36;;;;;;;117.15;60.15;;;3.70;99.90;;;;;;4948186;29;20034;-96
2021/10/31 01:27:43;;;;;;;120.63;66.53;;;3.80;99.90;;;;;;4946083;29;20114;-96
2021/10/31 01:30:55;;;;;;;135.40;71.53;;;3.80;99.90;;;;;;4949970;29;20082;-96
2021/10/31 01:33:52;;;;;;;125.60;70.45;;;3.70;99.90;;;;;;4948012;29;20537;-96
2021/10/31 01:36:58;;;;;;;107.15;59.47;;;3.60;99.90;;;;;;4949511;29;20075;-96
2021/10/31 01:39:36;;;;;;;118.82;64.50;;;3.60;99.90;;;;;;4947431;29;20051;-96
2021/10/31 01:42:04;;;;;;;106.57;58.85;;;3.60;99.90;;;;;;4950580;29;20027;-96
2021/10/31 01:44:41;;;;;;;114.68;62.90;;;3.50;99.90;;;;;;4948505;29;20023;-96
2021/10/31 01:47:26;;;;;;;116.65;64.20;;;3.50;99.90;;;;;;4947722;29;20474;-96
2021/10/31 01:50:21;;;;;;;116.30;63.67;;;3.50;99.90;;;;;;4951489;29;20058;-96
2021/10/31 01:52:50;;;;;;;105.60;58.20;;;3.50;99.90;;;;;;4937998;29;20043;-96
2021/10/31 01:55:24;;;;;;;110.88;62.45;;;3.40;99.90;;;;;;4948637;29;20024;-96
2021/10/31 01:57:56;;;;;;;114.88;61.92;;;3.40;99.90;;;;;;4946526;29;20031;-96
2021/10/31 02:00:22;;;;;;;111.47;60.08;;;3.40;99.90;;;;;;4945677;29;20027;-96
2021/10/31 02:02:47;;;;;;;122.75;64.32;;;3.40;99.90;;;;;;4943833;29;20031;-96
2021/10/31 02:05:16;;;;;;;114.53;62.58;;;3.40;99.90;;;;;;4940869;29;20482;-96
2021/10/31 02:07:48;;;;;;;113.80;62.20;;;3.40;99.90;;;;;;4940786;29;20102;-96
2021/10/31 02:10:15;;;;;;;110.10;61.28;;;3.30;99.90;;;;;;4940104;29;20027;-96
2021/10/31 02:12:44;;;;;;;120.97;67.22;;;3.30;99.90;;;;;;4940804;29;20046;-96
2021/10/31 02:15:18;;;;;;;118.63;66.20;;;3.20;99.90;;;;;;4939906;29;20038;-96
2021/10/31 02:17:50;;;;;;;126.82;68.45;;;3.20;99.90;;;;;;4940141;29;20027;-96
2021/10/31 02:20:16;;;;;;;114.07;63.25;;;3.20;99.90;;;;;;4940425;29;20106;-96
2021/10/31 02:22:54;;;;;;;119.68;66.13;;;3.20;99.90;;;;;;4939767;29;20054;-96
2021/10/31 02:25:21;;;;;;;118.18;64.07;;;3.20;99.90;;;;;;4939735;29;20039;-96
2021/10/31 02:27:46;;;;;;;122.93;66.05;;;3.20;99.90;;;;;;4939528;29;20031;-96
2021/10/31 02:30:13;;;;;;;134.43;68.78;;;3.20;99.90;;;;;;4939462;29;20032;-96
2021/10/31 02:32:38;;;;;;;122.78;66.70;;;3.10;99.90;;;;;;4939599;29;20425;-96
2021/10/31 02:35:08;;;;;;;121.38;66.75;;;3.10;99.90;;;;;;4939264;29;20027;-95
2021/10/31 02:37:37;;;;;;;129.82;68.55;;;3.10;99.90;;;;;;4939309;29;20082;-95
2021/10/31 02:40:04;;;;;;;129.95;68.68;;;3.10;99.90;;;;;;4939124;29;20134;-95
2021/10/31 02:42:30;;;;;;;122.93;65.70;;;3.10;99.90;;;;;;4939368;29;20109;-96
2021/10/31 02:44:56;;;;;;;125.15;69.07;;;3.10;99.90;;;;;;4939507;29;20019;-96
2021/10/31 02:47:28;;;;;;;126.18;69.68;;;3.10;99.90;;;;;;4939195;29;20489;-96
2021/10/31 02:49:56;;;;;;;121.57;65.68;;;3.10;99.90;;;;;;4938909;29;20542;-96
2021/10/31 02:52:36;;;;;;;131.02;65.40;;;3.20;99.90;;;;;;4939171;29;20378;-96
2021/10/31 02:55:17;;;;;;;125.32;67.45;;;3.10;99.90;;;;;;4939159;29;20020;-95
2021/10/31 02:57:48;;;;;;;127.13;67.70;;;3.20;99.90;;;;;;4939225;29;20027;-96
2021/10/31 03:00:15;;;;;;;111.63;63.30;;;3.20;99.90;;;;;;4939169;29;20065;-95
2021/10/31 03:02:42;;;;;;;124.70;66.78;;;3.20;99.90;;;;;;4939084;29;20027;-95
2021/10/31 03:05:08;;;;;;;122.47;67.20;;;3.20;99.90;;;;;;4939139;29;20024;-95
2021/10/31 03:07:35;;;;;;;124.43;69.15;;;3.20;99.90;;;;;;4939096;29;20038;-95
2021/10/31 03:10:00;;;;;;;118.13;62.05;;;3.10;99.90;;;;;;4939253;29;20075;-95
2021/10/31 03:12:26;;;;;;;127.60;69.10;;;3.10;99.90;;;;;;4938959;29;20024;-95
2021/10/31 03:14:52;;;;;;;117.75;64.55;;;3.10;99.90;;;;;;4939100;29;20023;-94
2021/10/31 03:17:17;;;;;;;119.75;64.43;;;3.10;99.90;;;;;;4939011;29;20035;-95
2021/10/31 03:19:43;;;;;;;124.45;64.07;;;3.10;99.90;;;;;;4938902;29;20093;-95
2021/10/31 03:22:09;;;;;;;130.85;67.50;;;3.10;99.90;;;;;;4939179;29;20023;-95
2021/10/31 03:24:35;;;;;;;126.47;67.40;;;3.00;99.90;;;;;;4938963;29;20035;-95
2021/10/31 03:27:02;;;;;;;134.15;67.72;;;3.00;99.90;;;;;;4938893;29;20039;-95
2021/10/31 03:29:27;;;;;;;125.20;68.18;;;3.00;99.90;;;;;;4939061;29;20485;-95
2021/10/31 03:31:53;;;;;;;121.35;66.15;;;3.00;99.90;;;;;;4938773;29;20027;-94
2021/10/31 03:34:20;;;;;;;129.02;67.68;;;2.90;99.90;;;;;;4940159;29;20475;-94
2021/10/31 03:36:47;;;;;;;143.55;72.72;;;2.80;99.90;;;;;;4942161;29;20031;-95
2021/10/31 03:39:12;;;;;;;135.40;72.40;;;2.90;99.90;;;;;;4942286;29;20051;-94
2021/10/31 03:41:38;;;;;;;157.77;84.43;;;2.80;99.90;;;;;;4942303;29;20078;-94
2021/10/31 03:44:04;;;;;;;153.38;77.07;;;2.70;99.90;;;;;;4942388;29;20030;-95
2021/10/31 03:46:31;;;;;;;153.27;78.70;;;2.70;99.90;;;;;;4942311;29;20038;-94
2021/10/31 03:48:57;;;;;;;147.02;75.43;;;2.70;99.90;;;;;;4942250;29;20031;-94
2021/10/31 03:51:23;;;;;;;142.50;76.78;;;2.70;99.90;;;;;;4942094;29;20031;-94
2021/10/31 03:53:49;;;;;;;140.25;75.10;;;2.70;99.90;;;;;;4942449;29;20027;-94
2021/10/31 03:56:16;;;;;;;148.35;76.53;;;2.80;99.90;;;;;;4941627;29;20029;-94
2021/10/31 03:58:42;;;;;;;141.35;74.50;;;2.80;99.90;;;;;;4941811;29;20035;-94
2021/10/31 04:01:09;;;;;;;139.10;73.32;;;2.80;99.90;;;;;;4941794;29;20031;-94
2021/10/31 04:03:35;;;;;;;128.32;72.95;;;2.80;99.90;;;;;;4941681;29;20035;-94
2021/10/31 04:06:02;;;;;;;134.07;71.72;;;2.80;99.90;;;;;;4941887;29;20031;-94
2021/10/31 04:08:27;;;;;;;139.13;71.65;;;2.90;99.90;;;;;;4942132;29;20027;-94
2021/10/31 04:10:53;;;;;;;134.05;71.07;;;2.80;99.90;;;;;;4941500;29;20031;-94
2021/10/31 04:13:19;;;;;;;143.55;74.13;;;2.90;99.90;;;;;;4942006;29;20031;-94
2021/10/31 04:15:46;;;;;;;134.50;69.13;;;2.80;99.90;;;;;;4941777;29;20038;-94
2021/10/31 04:18:11;;;;;;;138.38;73.90;;;2.90;99.90;;;;;;4941620;29;20031;-93
2021/10/31 04:20:38;;;;;;;140.02;72.93;;;2.80;99.90;;;;;;4941255;29;20020;-93
2021/10/31 04:23:04;;;;;;;138.55;70.63;;;2.80;99.90;;;;;;4925761;29;20497;-93
2021/10/31 04:25:30;;;;;;;131.25;69.30;;;2.80;99.90;;;;;;4941488;29;20027;-93
2021/10/31 04:27:56;;;;;;;156.20;84.35;;;2.80;99.90;;;;;;4958422;29;20063;-93
2021/10/31 04:30:21;;;;;;;156.63;80.53;;;2.70;99.90;;;;;;4925711;29;20035;-93
2021/10/31 04:32:47;;;;;;;141.10;78.28;;;2.70;99.90;;;;;;4940997;29;20027;-93
2021/10/31 04:35:13;;;;;;;144.35;79.45;;;2.70;99.90;;;;;;4941669;29;20038;-93
2021/10/31 04:37:42;;;;;;;135.52;71.88;;;2.80;99.90;;;;;;4958305;29;20390;-93
2021/10/31 04:40:11;;;;;;;132.40;70.20;;;2.80;99.90;;;;;;4941298;29;20043;-93
2021/10/31 04:42:38;;;;;;;161.23;81.90;;;2.80;99.90;;;;;;4941138;29;20023;-90
2021/10/31 04:45:05;;;;;;;152.88;77.40;;;2.70;99.90;;;;;;4940797;29;20026;-91
2021/10/31 04:47:31;;;;;;;131.63;70.88;;;2.70;99.90;;;;;;4941274;29;20030;-91
2021/10/31 04:49:57;;;;;;;132.82;71.65;;;2.70;99.90;;;;;;4940885;29;20028;-85
2021/10/31 04:52:23;;;;;;;141.82;69.78;;;2.70;99.90;;;;;;4940951;29;20162;-86
2021/10/31 04:54:50;;;;;;;141.45;73.38;;;2.70;99.90;;;;;;4940952;29;20059;-87
2021/10/31 04:57:16;;;;;;;139.13;69.80;;;2.70;99.90;;;;;;4940932;29;20433;-90
2021/10/31 04:59:41;;;;;;;143.43;69.22;;;2.70;99.90;;;;;;4940834;29;20027;-88
2021/10/31 05:02:07;;;;;;;153.60;71.10;;;2.70;99.90;;;;;;4957683;29;20368;-88
2021/10/31 05:04:33;;;;;;;148.48;76.85;;;2.70;99.90;;;;;;4940715;29;20179;-87
2021/10/31 05:06:58;;;;;;;153.30;76.75;;;2.80;99.90;;;;;;4940524;29;20121;-87
2021/10/31 05:09:24;;;;;;;142.93;75.15;;;2.80;99.90;;;;;;4940485;29;20031;-87
2021/10/31 05:11:50;;;;;;;147.75;74.13;;;2.90;99.90;;;;;;4940812;29;20038;-87
2021/10/31 05:14:16;;;;;;;146.70;75.03;;;2.90;99.90;;;;;;4940471;29;20110;-88
2021/10/31 05:16:41;;;;;;;151.20;77.38;;;3.00;99.90;;;;;;4940385;29;20126;-87
2021/10/31 05:19:10;;;;;;;152.23;79.07;;;3.00;99.90;;;;;;4940638;29;20034;-87
2021/10/31 05:21:35;;;;;;;145.68;79.45;;;3.00;99.90;;;;;;4940748;29;20075;-88
2021/10/31 05:24:01;;;;;;;149.13;81.35;;;3.00;99.90;;;;;;4940213;29;20019;-88
2021/10/31 05:26:27;;;;;;;143.05;76.78;;;3.00;99.90;;;;;;4940569;29;20391;-87
2021/10/31 05:28:54;;;;;;;146.75;77.57;;;3.00;99.90;;;;;;4939967;29;20035;-87
2021/10/31 05:31:20;;;;;;;152.23;79.40;;;3.10;99.90;;;;;;4939889;29;20082;-88
2021/10/31 05:33:47;;;;;;;138.88;74.13;;;3.00;99.90;;;;;;4939873;29;20394;-88
2021/10/31 05:36:12;;;;;;;150.05;76.22;;;3.10;99.90;;;;;;4940094;29;20038;-87
2021/10/31 05:38:38;;;;;;;170.85;89.72;;;3.20;99.90;;;;;;4939998;29;20051;-88
2021/10/31 05:41:04;;;;;;;128.18;69.90;;;3.20;99.90;;;;;;4956962;29;20046;-88
2021/10/31 05:43:30;;;;;;;164.25;89.63;;;3.20;99.90;;;;;;4939881;29;20466;-87
2021/10/31 05:45:57;;;;;;;149.35;80.40;;;3.30;99.90;;;;;;4924466;29;20118;-88
2021/10/31 05:48:24;;;;;;;156.18;83.53;;;3.30;99.90;;;;;;4939727;29;20118;-89
2021/10/31 05:50:52;;;;;;;133.82;73.53;;;3.40;99.90;;;;;;4939719;29;20109;-89
2021/10/31 05:53:18;;;;;;;127.78;70.03;;;3.40;99.90;;;;;;4939790;29;20027;-88
2021/10/31 05:55:43;;;;;;;135.48;73.68;;;3.50;99.90;;;;;;4939826;28;20038;-89
2021/10/31 05:58:09;;;;;;;136.88;75.00;;;3.50;99.90;;;;;;4955873;29;20035;-89
2021/10/31 06:00:35;;;;;;;156.75;85.45;;;3.60;99.90;;;;;;4939463;29;20094;-89
2021/10/31 06:03:00;;;;;;;143.23;79.95;;;3.70;99.90;;;;;;4939595;29;20023;-88
2021/10/31 06:05:27;;;;;;;144.48;78.75;;;3.70;99.90;;;;;;4939388;29;20031;-88
2021/10/31 06:07:53;;;;;;;125.85;72.65;;;3.80;99.90;;;;;;4956551;29;20242;-88
2021/10/31 06:10:18;;;;;;;125.15;68.95;;;3.90;99.90;;;;;;4923756;29;20050;-88
2021/10/31 06:12:46;;;;;;;126.30;67.93;;;3.90;99.90;;;;;;4939497;29;20118;-89
2021/10/31 06:15:15;;;;;;;125.68;71.20;;;4.10;99.90;;;;;;4939618;29;20054;-89
2021/10/31 06:17:41;;;;;;;135.38;70.20;;;4.10;99.90;;;;;;4939413;29;20067;-89
2021/10/31 06:20:12;;;;;;;125.20;71.38;;;4.20;99.90;;;;;;4939420;29;20019;-89
2021/10/31 06:22:38;;;;;;;97.57;59.95;;;4.30;99.90;;;;;;4939804;29;20027;-89
2021/10/31 06:25:05;;;;;;;104.68;61.00;;;4.30;99.90;;;;;;4939117;29;20064;-89
2021/10/31 06:27:32;;;;;;;101.53;57.00;;;4.50;99.90;;;;;;4956196;29;20034;-90
2021/10/31 06:29:57;;;;;;;118.05;69.80;;;4.60;99.90;;;;;;4939364;29;20023;-90
2021/10/31 06:32:23;;;;;;;92.55;56.88;;;4.60;99.90;;;;;;4923598;29;20042;-91
2021/10/31 06:34:49;;;;;;;91.28;52.97;;;4.80;99.90;;;;;;4956174;29;20056;-90
2021/10/31 06:37:15;;;;;;;90.80;52.10;;;4.90;99.90;;;;;;4939205;29;20034;-90
2021/10/31 06:39:41;;;;;;;94.93;54.10;;;5.00;99.90;;;;;;4938893;29;20051;-90
2021/10/31 06:42:06;;;;;;;91.05;53.15;;;5.10;99.90;;;;;;4939235;29;20032;-90
2021/10/31 06:44:32;;;;;;;91.68;54.20;;;5.20;99.90;;;;;;4938753;29;20037;-90
2021/10/31 06:46:58;;;;;;;76.50;50.38;;;5.30;99.90;;;;;;4923056;29;20032;-90
2021/10/31 06:49:23;;;;;;;79.43;47.63;;;5.40;99.90;;;;;;4956063;29;20058;-90
2021/10/31 06:51:49;;;;;;;80.10;49.95;;;5.50;99.90;;;;;;4939103;29;20031;-90
2021/10/31 06:54:15;;;;;;;69.80;45.65;;;5.60;99.90;;;;;;4938808;29;20024;-90
2021/10/31 06:56:41;;;;;;;70.03;44.05;;;5.70;99.90;;;;;;4938846;29;20023;-90
2021/10/31 06:59:07;;;;;;;62.63;40.47;;;5.80;99.90;;;;;;4956250;29;20023;-90
2021/10/31 07:01:34;;;;;;;64.68;39.53;;;5.90;99.90;;;;;;4939154;29;20027;-90
2021/10/31 07:04:01;;;;;;;60.10;37.25;;;6.00;99.90;;;;;;4939361;29;20114;-90
2021/10/31 07:06:27;;;;;;;60.30;38.08;;;6.20;99.90;;;;;;4939037;29;20063;-89
2021/10/31 07:08:54;;;;;;;61.72;35.05;;;6.30;99.90;;;;;;4941973;29;20051;-90
2021/10/31 07:11:20;;;;;;;58.45;34.38;;;6.40;99.90;;;;;;4927172;29;20028;-88
2021/10/31 07:13:46;;;;;;;59.97;35.80;;;6.60;99.90;;;;;;4942990;29;20050;-92
2021/10/31 07:16:13;;;;;;;52.03;32.63;;;6.60;99.90;;;;;;4943078;29;20062;-90
2021/10/31 07:18:39;;;;;;;51.20;33.00;;;6.70;99.90;;;;;;4942663;29;20082;-92
2021/10/31 07:21:05;;;;;;;61.08;37.28;;;6.90;99.90;;;;;;4942425;29;20071;-90
2021/10/31 07:23:31;;;;;;;54.38;33.05;;;6.90;99.90;;;;;;4942526;29;20034;-90
2021/10/31 07:26:01;;;;;;;54.63;33.47;;;7.00;99.90;;;;;;4942648;29;20019;-94
2021/10/31 07:28:26;;;;;;;54.92;34.78;;;7.10;99.90;;;;;;4942216;29;20570;-88
2021/10/31 07:30:53;;;;;;;52.00;32.97;;;7.20;99.90;;;;;;4942121;29;20068;-89
2021/10/31 07:33:19;;;;;;;50.30;32.15;;;7.20;99.90;;;;;;4941489;29;20479;-87
2021/10/31 07:35:45;;;;;;;51.90;32.08;;;7.30;99.90;;;;;;4941935;29;20031;-90
2021/10/31 07:38:11;;;;;;;50.33;31.55;;;7.40;99.90;;;;;;4942101;29;20478;-88
2021/10/31 07:40:37;;;;;;;51.58;30.23;;;7.50;99.90;;;;;;4942628;29;20015;-88
2021/10/31 07:43:04;;;;;;;47.45;30.27;;;7.50;99.90;;;;;;4942214;29;20082;-88
2021/10/31 07:45:31;;;;;;;52.92;30.92;;;7.60;99.90;;;;;;4942799;29;20067;-88
2021/10/31 07:47:59;;;;;;;49.85;30.67;;;7.70;99.90;;;;;;4941908;29;20122;-88
2021/10/31 07:50:25;;;;;;;50.40;32.42;;;7.70;99.90;;;;;;4926818;29;20086;-88
2021/10/31 07:52:51;;;;;;;47.13;29.35;;;7.70;99.90;;;;;;4942429;29;20027;-88
2021/10/31 07:55:19;;;;;;;48.08;30.00;;;7.70;99.90;;;;;;4959226;29;20035;-88
2021/10/31 07:57:48;;;;;;;47.58;30.27;;;7.80;99.90;;;;;;4941891;29;20023;-88
2021/10/31 08:00:15;;;;;;;48.77;30.40;;;7.80;99.90;;;;;;4942014;29;20481;-88
2021/10/31 08:02:41;;;;;;;51.17;31.35;;;7.90;99.90;;;;;;4941910;29;20035;-88
2021/10/31 08:05:07;;;;;;;51.85;31.20;;;7.90;99.90;;;;;;4958879;29;20031;-94
2021/10/31 08:07:34;;;;;;;49.10;29.58;;;8.00;99.90;;;;;;4958743;29;20102;-90
2021/10/31 08:10:00;;;;;;;47.17;30.65;;;8.00;99.90;;;;;;4941393;29;20074;-89
2021/10/31 08:12:27;;;;;;;53.33;31.75;;;8.00;99.90;;;;;;4941399;29;20024;-90
2021/10/31 08:14:53;;;;;;;50.28;31.17;;;8.10;99.90;;;;;;4941783;29;20082;-90
2021/10/31 08:17:19;;;;;;;52.55;32.28;;;8.10;99.90;;;;;;4940814;29;20023;-92
2021/10/31 08:19:44;;;;;;;53.63;32.50;;;8.10;99.90;;;;;;4957663;28;20063;-90
2021/10/31 08:22:11;;;;;;;55.60;38.67;;;8.20;99.90;;;;;;4941149;29;20028;-89
2021/10/31 08:24:37;;;;;;;57.42;35.20;;;8.20;99.90;;;;;;4958514;29;20027;-88
2021/10/31 08:27:03;;;;;;;49.35;32.22;;;8.20;99.90;;;;;;4941070;29;20390;-87
2021/10/31 08:29:29;;;;;;;49.95;32.97;;;8.20;99.90;;;;;;4925555;29;20035;-90
2021/10/31 08:31:55;;;;;;;50.58;33.75;;;8.30;99.90;;;;;;4941022;29;20525;-93
2021/10/31 08:34:23;;;;;;;56.17;33.80;;;8.30;99.90;;;;;;4958369;29;20027;-87
2021/10/31 08:36:49;;;;;;;53.10;30.60;;;8.30;99.90;;;;;;4941242;29;20493;-88
2021/10/31 08:39:15;;;;;;;46.58;30.77;;;8.30;99.90;;;;;;4940890;29;20490;-87
2021/10/31 08:41:41;;;;;;;42.75;29.67;;;8.40;99.90;;;;;;4940837;29;20027;-90
2021/10/31 08:44:07;;;;;;;46.55;29.83;;;8.40;99.90;;;;;;4925810;29;20038;-90
2021/10/31 08:46:35;;;;;;;48.92;32.58;;;8.40;99.90;;;;;;4941118;29;20489;-90
2021/10/31 08:49:02;;;;;;;49.78;31.75;;;8.40;99.90;;;;;;4924913;29;20094;-89
2021/10/31 08:51:28;;;;;;;47.20;31.05;;;8.40;99.90;;;;;;4925034;29;20031;-90
2021/10/31 08:53:55;;;;;;;46.72;29.70;;;8.40;99.90;;;;;;4940780;29;20082;-89
2021/10/31 08:56:28;;;;;;;46.63;31.10;;;8.40;99.90;;;;;;4924958;29;20035;-89
2021/10/31 08:58:54;;;;;;;47.95;30.95;;;8.40;99.90;;;;;;4940977;29;20027;-89
2021/10/31 09:01:20;;;;;;;52.25;31.50;;;8.50;99.90;;;;;;4957864;29;20067;-89
2021/10/31 09:03:47;;;;;;;45.55;31.08;;;8.60;99.90;;;;;;4939563;29;20081;-90
2021/10/31 09:06:14;;;;;;;45.05;30.30;;;8.60;99.90;;;;;;4940717;29;20414;-89
2021/10/31 09:08:43;;;;;;;46.45;28.55;;;8.60;99.90;;;;;;4940490;29;20037;-89
2021/10/31 09:11:10;;;;;;;50.03;31.30;;;8.60;99.90;;;;;;4940695;29;20117;-89
2021/10/31 09:13:36;;;;;;;48.22;30.85;;;8.60;99.90;;;;;;4940619;29;20024;-89
2021/10/31 09:16:02;;;;;;;57.38;36.25;;;8.70;99.90;;;;;;4957039;29;20031;-89
2021/10/31 09:18:28;;;;;;;47.42;30.65;;;8.70;99.90;;;;;;4957715;29;20047;-89
2021/10/31 09:20:54;;;;;;;43.15;27.15;;;8.80;99.90;;;;;;4957262;29;20176;-89
2021/10/31 09:23:21;;;;;;;48.72;28.45;;;8.80;99.90;;;;;;4940342;29;20175;-89
2021/10/31 09:25:47;;;;;;;39.55;26.67;;;8.80;99.90;;;;;;4940242;29;20090;-89
2021/10/31 09:28:13;;;;;;;50.10;32.13;;;8.80;99.90;;;;;;4940391;29;20521;-89
2021/10/31 09:30:41;;;;;;;48.35;30.27;;;8.80;99.90;;;;;;4924837;28;20121;-90
2021/10/31 09:33:10;;;;;;;55.83;34.88;;;8.80;99.90;;;;;;4940158;29;20074;-89
2021/10/31 09:35:49;;;;;;;44.43;29.60;;;8.90;99.90;;;;;;4925169;29;20038;-89
2021/10/31 09:38:19;;;;;;;47.08;30.63;;;8.90;99.90;;;;;;4957241;29;20274;-90
2021/10/31 09:40:47;;;;;;;48.67;33.28;;;8.90;99.90;;;;;;4940170;29;20027;-90
2021/10/31 09:43:13;;;;;;;45.47;30.48;;;9.00;99.90;;;;;;4939923;29;20400;-93
2021/10/31 09:45:39;;;;;;;46.50;29.83;;;9.00;99.90;;;;;;4939735;29;20031;-89
2021/10/31 09:48:10;;;;;;;46.78;29.48;;;9.00;99.90;;;;;;4957037;29;20074;-90
2021/10/31 09:50:42;;;;;;;42.03;27.73;;;9.00;99.90;;;;;;4939948;29;20069;-90
2021/10/31 09:53:09;;;;;;;47.50;29.98;;;9.00;99.90;;;;;;4935647;29;20027;-89
2021/10/31 09:55:35;;;;;;;42.03;28.95;;;9.10;99.90;;;;;;4939490;29;20031;-90
2021/10/31 09:58:05;;;;;;;46.38;30.55;;;9.00;99.90;;;;;;4940075;29;20034;-92
2021/10/31 10:00:39;;;;;;;41.70;28.00;;;9.10;99.90;;;;;;4939911;29;20078;-91
2021/10/31 10:06:25;;;;;;;47.58;31.73;;;9.10;99.90;;;;;;4957151;29;20035;-90
2021/10/31 10:09:05;;;;;;;40.47;28.73;;;9.10;99.90;;;;;;4939734;29;20035;-91
2021/10/31 10:11:34;;;;;;;47.70;31.23;;;9.20;99.90;;;;;;4956633;29;20031;-90
2021/10/31 10:14:17;;;;;;;45.72;29.05;;;9.20;99.90;;;;;;4956699;29;20078;-90
2021/10/31 10:16:45;;;;;;;58.42;39.88;;;9.20;99.90;;;;;;4956754;29;20027;-89
2021/10/31 10:19:18;;;;;;;70.20;45.38;;;9.20;99.90;;;;;;4939634;29;20055;-90
2021/10/31 10:21:44;;;;;;;65.90;40.75;;;9.20;99.90;;;;;;4939553;29;20031;-91
2021/10/31 10:24:11;;;;;;;57.15;36.63;;;9.30;99.90;;;;;;4939652;29;20047;-90
2021/10/31 10:26:42;;;;;;;55.05;36.15;;;9.30;99.90;;;;;;4939182;29;20505;-90
2021/10/31 10:29:23;;;;;;;50.30;33.15;;;9.20;99.90;;;;;;4924442;29;20501;-89
2021/10/31 10:31:58;;;;;;;49.28;33.08;;;9.30;99.90;;;;;;4939286;29;20070;-89
2021/10/31 10:34:37;;;;;;;55.85;36.90;;;9.30;99.90;;;;;;4939569;29;20027;-89
2021/10/31 10:37:34;;;;;;;57.95;33.92;;;9.30;99.90;;;;;;4939524;29;20031;-89
2021/10/31 10:40:06;;;;;;;57.08;37.17;;;9.20;99.90;;;;;;4952193;29;20051;-88
2021/10/31 10:42:33;;;;;;;;;;;9.20;99.90;;;;;;4939220;29;20027;-88
2021/10/31 10:45:21;;;;;;;59.03;35.55;;;9.20;99.90;;;;;;4939051;29;20277;-88
2021/10/31 10:47:48;;;;;;;58.97;36.88;;;9.20;99.90;;;;;;4939487;29;20054;-88
2021/10/31 10:50:18;;;;;;;62.17;37.28;;;9.20;99.90;;;;;;4956682;29;20063;-89
2021/10/31 10:52:44;;;;;;;;;;;9.20;99.90;;;;;;4956358;29;20038;-89
2021/10/31 10:55:11;;;;;;;63.35;39.53;;;9.20;99.90;;;;;;4956273;29;20336;-87
2021/10/31 10:57:41;;;;;;;58.75;35.05;;;9.20;99.90;;;;;;4956146;29;20106;-91
2021/10/31 11:00:18;;;;;;;54.45;34.72;;;9.20;99.90;;;;;;4939344;29;20030;-88
2021/10/31 11:02:48;;;;;;;57.72;35.05;;;9.20;99.90;;;;;;4939024;29;20034;-88
2021/10/31 15:29:11;;;;;;;28.20;18.92;;;7.50;99.90;;;;;;5092327;27;20523;-92
2021/10/31 15:31:38;;;;;;;28.67;19.52;;;7.50;99.90;;;;;;5090816;28;20490;-90
2021/10/31 15:34:05;;;;;;;32.03;18.88;;;7.40;99.90;;;;;;5090962;28;20025;-91
2021/10/31 15:36:31;;;;;;;31.73;20.40;;;7.40;99.90;;;;;;5090916;28;20047;-89
2021/10/31 15:38:57;;;;;;;28.40;19.85;;;7.50;99.90;;;;;;5090993;28;20471;-90
2021/10/31 15:41:22;;;;;;;30.67;19.70;;;7.50;99.90;;;;;;5090748;28;20036;-88
2021/10/31 15:43:52;;;;;;;26.50;19.33;;;7.60;99.90;;;;;;5090821;28;20028;-91
2021/10/31 15:46:19;;;;;;;28.65;19.92;;;7.60;99.90;;;;;;5090684;28;20040;-90
2021/10/31 15:48:45;;;;;;;32.08;21.17;;;7.60;99.90;;;;;;5090479;28;20048;-92
2021/10/31 15:51:11;;;;;;;30.63;19.50;;;7.60;99.90;;;;;;5090743;28;20487;-92
2021/10/31 15:53:36;;;;;;;26.55;18.83;;;7.60;99.90;;;;;;5090599;28;20021;-93
2021/10/31 15:56:02;;;;;;;30.00;19.83;;;7.70;99.90;;;;;;5090524;28;20097;-93
2021/10/31 15:58:28;;;;;;;27.27;18.83;;;7.70;99.90;;;;;;5090414;28;20031;-93
2021/10/31 16:00:55;;;;;;;31.95;21.27;;;7.70;99.90;;;;;;5090434;28;20048;-93
2021/10/31 16:03:30;;;;;;;33.58;21.45;;;7.70;99.90;;;;;;5090653;28;20082;-92
2021/10/31 16:06:00;;;;;;;34.22;21.42;;;7.80;99.90;;;;;;5090527;28;20024;-93
2021/10/31 16:08:27;;;;;;;30.20;20.70;;;7.70;99.90;;;;;;5090238;28;20028;-93
2021/10/31 16:10:53;;;;;;;35.72;22.88;;;7.80;99.90;;;;;;5090148;28;20032;-93
2021/10/31 16:13:19;;;;;;;38.05;24.38;;;7.70;99.90;;;;;;5090077;28;20030;-93
2021/10/31 16:15:46;;;;;;;35.85;21.63;;;7.70;99.90;;;;;;5091034;28;20021;-93
2021/10/31 16:18:13;;;;;;;40.03;23.40;;;7.70;99.90;;;;;;5089871;28;20505;-93
2021/10/31 16:20:42;;;;;;;36.70;22.75;;;7.60;99.90;;;;;;5089991;28;20032;-92
2021/10/31 16:23:09;;;;;;;38.25;23.13;;;7.60;99.90;;;;;;5089964;28;20020;-93
2021/10/31 16:25:34;;;;;;;42.20;23.70;;;7.50;99.90;;;;;;5089845;28;20035;-93
2021/10/31 16:28:00;;;;;;;34.97;22.35;;;7.50;99.90;;;;;;5089417;28;20048;-93
2021/10/31 16:30:27;;;;;;;35.97;22.58;;;7.50;99.90;;;;;;5089936;28;20494;-92
2021/10/31 16:32:54;;;;;;;39.53;24.08;;;7.40;99.90;;;;;;5089773;28;20020;-93
2021/10/31 16:35:23;;;;;;;39.45;22.83;;;7.30;99.90;;;;;;5089664;28;20027;-93
2021/10/31 16:37:49;;;;;;;41.38;23.92;;;7.30;99.90;;;;;;5089552;28;20024;-93
2021/10/31 16:40:16;;;;;;;42.28;24.83;;;7.20;99.90;;;;;;5077434;28;20025;-93
2021/10/31 16:42:49;;;;;;;43.53;25.77;;;7.10;99.90;;;;;;5076128;28;20478;-93
2021/10/31 16:45:17;;;;;;;43.25;26.52;;;7.10;99.90;;;;;;5076043;28;20425;-93
2021/10/31 16:47:46;;;;;;;46.53;26.55;;;7.00;99.90;;;;;;5075951;28;20035;-93
2021/10/31 16:50:25;;;;;;;42.47;26.42;;;7.00;99.90;;;;;;5075775;28;20025;-93
2021/10/31 16:52:54;;;;;;;45.38;27.88;;;7.00;99.90;;;;;;5076298;28;20108;-92
2021/10/31 16:55:23;;;;;;;50.63;29.90;;;7.00;99.90;;;;;;5075976;28;20056;-91
2021/10/31 16:57:49;;;;;;;54.58;32.22;;;6.90;99.90;;;;;;5075893;28;20115;-93
2021/10/31 17:00:17;;;;;;;62.03;33.65;;;6.90;99.90;;;;;;5075844;28;20039;-91
2021/10/31 17:02:44;;;;;;;55.47;34.80;;;6.90;99.90;;;;;;5075820;28;20086;-92
2021/10/31 17:05:12;;;;;;;73.15;39.90;;;6.90;99.90;;;;;;5075575;28;20035;-91
2021/10/31 17:07:47;;;;;;;102.32;54.50;;;6.90;99.90;;;;;;5075444;28;20031;-89